sensor_id;sensor_type;location;lat;lon;timestamp;pressure;altitude;pressure_sealevel;temperature;humidity
41044;BME280;51680;49.806;18.774;2022-10-16T00:02:16;97597.50;;;16.84;66.41
41044;BME280;51680;49.806;18.774;2022-10-16T00:05:18;97597.59;;;16.73;66.76
41044;BME280;51680;49.806;18.774;2022-10-16T00:08:20;97603.81;;;16.72;67.00
41044;BME280;51680;49.806;18.774;2022-10-16T00:11:25;97613.47;;;16.62;67.36
41044;BME280;51680;49.806;18.774;2022-10-16T00:14:27;97618.03;;;16.60;67.39
41044;BME280;51680;49.806;18.774;2022-10-16T00:17:29;97624.28;;;16.59;67.73
41044;BME280;51680;49.806;18.774;2022-10-16T00:20:33;97622.50;;;16.60;67.27
41044;BME280;51680;49.806;18.774;2022-10-16T00:23:37;97627.63;;;16.61;67.66
41044;BME280;51680;49.806;18.774;2022-10-16T00:26:41;97627.75;;;16.60;67.74
41044;BME280;51680;49.806;18.774;2022-10-16T00:29:42;97624.41;;;16.58;67.89
41044;BME280;51680;49.806;18.774;2022-10-16T00:32:44;97614.69;;;16.58;67.81
41044;BME280;51680;49.806;18.774;2022-10-16T00:35:46;97630.84;;;16.65;67.78
41044;BME280;51680;49.806;18.774;2022-10-16T00:38:50;97643.63;;;16.69;67.63
41044;BME280;51680;49.806;18.774;2022-10-16T00:41:54;97639.75;;;16.73;67.88
41044;BME280;51680;49.806;18.774;2022-10-16T00:44:57;97633.34;;;16.66;67.75
41044;BME280;51680;49.806;18.774;2022-10-16T00:47:58;97638.34;;;16.69;67.85
41044;BME280;51680;49.806;18.774;2022-10-16T00:51:01;97626.88;;;16.70;67.78
41044;BME280;51680;49.806;18.774;2022-10-16T00:54:04;97640.34;;;16.77;67.74
41044;BME280;51680;49.806;18.774;2022-10-16T00:57:11;97641.25;;;16.66;67.92
41044;BME280;51680;49.806;18.774;2022-10-16T01:00:16;97627.22;;;16.66;67.93
41044;BME280;51680;49.806;18.774;2022-10-16T01:03:24;97640.28;;;16.67;68.14
41044;BME280;51680;49.806;18.774;2022-10-16T01:06:34;97635.84;;;16.68;68.43
41044;BME280;51680;49.806;18.774;2022-10-16T01:09:49;97639.44;;;16.67;68.31
41044;BME280;51680;49.806;18.774;2022-10-16T01:12:58;97633.81;;;16.71;68.24
41044;BME280;51680;49.806;18.774;2022-10-16T01:16:06;97632.94;;;16.71;68.40
41044;BME280;51680;49.806;18.774;2022-10-16T01:19:12;97627.75;;;16.80;68.05
41044;BME280;51680;49.806;18.774;2022-10-16T01:22:16;97630.88;;;16.74;68.10
41044;BME280;51680;49.806;18.774;2022-10-16T01:25:27;97632.13;;;16.70;68.67
41044;BME280;51680;49.806;18.774;2022-10-16T01:28:38;97631.28;;;16.70;68.62
41044;BME280;51680;49.806;18.774;2022-10-16T01:31:44;97632.63;;;16.64;68.85
41044;BME280;51680;49.806;18.774;2022-10-16T01:34:51;97625.13;;;16.60;69.11
41044;BME280;51680;49.806;18.774;2022-10-16T01:37:58;97617.88;;;16.52;69.52
41044;BME280;51680;49.806;18.774;2022-10-16T01:41:06;97628.28;;;16.54;69.59
41044;BME280;51680;49.806;18.774;2022-10-16T01:44:14;97631.03;;;16.52;69.49
41044;BME280;51680;49.806;18.774;2022-10-16T01:47:20;97618.44;;;16.56;69.20
41044;BME280;51680;49.806;18.774;2022-10-16T01:50:24;97632.19;;;16.59;69.22
41044;BME280;51680;49.806;18.774;2022-10-16T01:53:26;97630.75;;;16.55;69.22
41044;BME280;51680;49.806;18.774;2022-10-16T01:56:29;97617.97;;;16.51;69.55
41044;BME280;51680;49.806;18.774;2022-10-16T01:59:35;97630.06;;;16.53;69.32
41044;BME280;51680;49.806;18.774;2022-10-16T02:02:40;97629.53;;;16.59;69.11
41044;BME280;51680;49.806;18.774;2022-10-16T02:05:45;97634.44;;;16.64;69.06
41044;BME280;51680;49.806;18.774;2022-10-16T02:08:47;97631.50;;;16.57;68.87
41044;BME280;51680;49.806;18.774;2022-10-16T02:11:50;97631.38;;;16.59;69.27
41044;BME280;51680;49.806;18.774;2022-10-16T02:14:56;97641.06;;;16.58;69.05
41044;BME280;51680;49.806;18.774;2022-10-16T02:17:58;97644.09;;;16.54;69.36
41044;BME280;51680;49.806;18.774;2022-10-16T02:21:04;97644.59;;;16.48;69.66
41044;BME280;51680;49.806;18.774;2022-10-16T02:24:14;97651.22;;;16.42;69.63
41044;BME280;51680;49.806;18.774;2022-10-16T02:27:23;97651.34;;;16.41;69.87
41044;BME280;51680;49.806;18.774;2022-10-16T02:30:32;97661.91;;;16.30;70.19
41044;BME280;51680;49.806;18.774;2022-10-16T02:33:36;97654.13;;;16.28;69.99
41044;BME280;51680;49.806;18.774;2022-10-16T02:36:40;97660.50;;;16.26;69.93
41044;BME280;51680;49.806;18.774;2022-10-16T02:39:43;97664.41;;;16.31;69.77
41044;BME280;51680;49.806;18.774;2022-10-16T02:42:50;97662.72;;;16.30;70.48
41044;BME280;51680;49.806;18.774;2022-10-16T02:45:54;97666.91;;;16.33;70.14
41044;BME280;51680;49.806;18.774;2022-10-16T02:48:56;97677.38;;;16.23;70.22
41044;BME280;51680;49.806;18.774;2022-10-16T02:51:57;97673.53;;;16.27;70.07
41044;BME280;51680;49.806;18.774;2022-10-16T02:54:59;97673.41;;;16.40;69.63
41044;BME280;51680;49.806;18.774;2022-10-16T02:58:01;97666.38;;;16.18;70.21
41044;BME280;51680;49.806;18.774;2022-10-16T03:01:04;97664.06;;;16.25;70.21
41044;BME280;51680;49.806;18.774;2022-10-16T03:04:06;97662.06;;;16.17;70.36
41044;BME280;51680;49.806;18.774;2022-10-16T03:07:08;97660.03;;;16.21;70.55
41044;BME280;51680;49.806;18.774;2022-10-16T03:10:09;97669.59;;;16.22;70.38
41044;BME280;51680;49.806;18.774;2022-10-16T03:13:11;97669.72;;;16.20;70.40
41044;BME280;51680;49.806;18.774;2022-10-16T03:16:14;97678.59;;;16.19;70.14
41044;BME280;51680;49.806;18.774;2022-10-16T03:19:16;97687.81;;;16.14;70.57
41044;BME280;51680;49.806;18.774;2022-10-16T03:22:18;97685.91;;;16.16;70.43
41044;BME280;51680;49.806;18.774;2022-10-16T03:25:20;97681.59;;;16.15;70.49
41044;BME280;51680;49.806;18.774;2022-10-16T03:28:21;97688.41;;;16.17;70.67
41044;BME280;51680;49.806;18.774;2022-10-16T03:31:24;97692.00;;;16.16;70.80
41044;BME280;51680;49.806;18.774;2022-10-16T03:34:26;97685.53;;;16.20;70.63
41044;BME280;51680;49.806;18.774;2022-10-16T03:37:28;97684.84;;;16.18;70.45
41044;BME280;51680;49.806;18.774;2022-10-16T03:40:30;97688.09;;;16.11;70.91
41044;BME280;51680;49.806;18.774;2022-10-16T03:43:32;97681.97;;;16.10;70.54
41044;BME280;51680;49.806;18.774;2022-10-16T03:46:35;97689.19;;;16.08;70.84
41044;BME280;51680;49.806;18.774;2022-10-16T03:49:37;97692.50;;;16.10;70.43
41044;BME280;51680;49.806;18.774;2022-10-16T03:52:39;97703.28;;;16.07;70.58
41044;BME280;51680;49.806;18.774;2022-10-16T03:55:41;97689.88;;;16.10;70.58
41044;BME280;51680;49.806;18.774;2022-10-16T03:58:43;97689.41;;;16.05;70.40
41044;BME280;51680;49.806;18.774;2022-10-16T04:01:46;97689.06;;;15.99;70.69
41044;BME280;51680;49.806;18.774;2022-10-16T04:04:48;97696.03;;;15.89;71.13
41044;BME280;51680;49.806;18.774;2022-10-16T04:07:49;97694.00;;;15.92;70.98
41044;BME280;51680;49.806;18.774;2022-10-16T04:10:51;97700.22;;;15.91;70.91
41044;BME280;51680;49.806;18.774;2022-10-16T04:13:53;97698.56;;;15.90;70.88
41044;BME280;51680;49.806;18.774;2022-10-16T04:16:56;97692.19;;;15.93;71.10
41044;BME280;51680;49.806;18.774;2022-10-16T04:19:58;97696.53;;;15.83;71.45
41044;BME280;51680;49.806;18.774;2022-10-16T04:22:59;97696.16;;;15.87;70.91
41044;BME280;51680;49.806;18.774;2022-10-16T04:26:01;97696.06;;;15.78;71.63
41044;BME280;51680;49.806;18.774;2022-10-16T04:29:03;97697.38;;;15.72;71.46
41044;BME280;51680;49.806;18.774;2022-10-16T04:32:07;97691.38;;;15.81;71.26
41044;BME280;51680;49.806;18.774;2022-10-16T04:35:09;97699.03;;;15.95;70.73
41044;BME280;51680;49.806;18.774;2022-10-16T04:38:11;97697.22;;;15.85;70.84
41044;BME280;51680;49.806;18.774;2022-10-16T04:41:13;97692.56;;;15.88;70.60
41044;BME280;51680;49.806;18.774;2022-10-16T04:44:15;97685.97;;;15.94;70.63
41044;BME280;51680;49.806;18.774;2022-10-16T04:47:18;97690.66;;;15.90;70.63
41044;BME280;51680;49.806;18.774;2022-10-16T04:50:20;97700.91;;;15.93;70.49
41044;BME280;51680;49.806;18.774;2022-10-16T04:53:38;97697.59;;;15.91;70.51
41044;BME280;51680;49.806;18.774;2022-10-16T04:56:40;97702.38;;;15.86;70.64
41044;BME280;51680;49.806;18.774;2022-10-16T04:59:47;97708.72;;;15.84;70.51
41044;BME280;51680;49.806;18.774;2022-10-16T05:02:51;97703.81;;;15.90;70.62
41044;BME280;51680;49.806;18.774;2022-10-16T05:05:52;97703.19;;;15.98;70.24
41044;BME280;51680;49.806;18.774;2022-10-16T05:08:54;97706.19;;;15.93;70.12
41044;BME280;51680;49.806;18.774;2022-10-16T05:11:56;97709.41;;;16.08;70.02
41044;BME280;51680;49.806;18.774;2022-10-16T05:14:58;97707.00;;;16.16;69.79
41044;BME280;51680;49.806;18.774;2022-10-16T05:18:01;97710.56;;;16.15;69.91
41044;BME280;51680;49.806;18.774;2022-10-16T05:21:03;97728.88;;;16.16;69.79
41044;BME280;51680;49.806;18.774;2022-10-16T05:24:06;97722.84;;;16.47;68.69
41044;BME280;51680;49.806;18.774;2022-10-16T05:27:26;97713.28;;;16.87;67.42
41044;BME280;51680;49.806;18.774;2022-10-16T05:30:28;97720.94;;;16.90;66.77
41044;BME280;51680;49.806;18.774;2022-10-16T05:33:31;97724.06;;;16.84;66.78
41044;BME280;51680;49.806;18.774;2022-10-16T05:36:33;97722.47;;;16.72;67.54
41044;BME280;51680;49.806;18.774;2022-10-16T05:39:35;97717.28;;;16.50;67.98
41044;BME280;51680;49.806;18.774;2022-10-16T05:42:37;97732.53;;;16.47;68.20
41044;BME280;51680;49.806;18.774;2022-10-16T05:45:39;97721.16;;;16.35;68.67
41044;BME280;51680;49.806;18.774;2022-10-16T05:48:42;97737.34;;;16.31;68.61
41044;BME280;51680;49.806;18.774;2022-10-16T05:51:44;97741.31;;;16.25;68.72
41044;BME280;51680;49.806;18.774;2022-10-16T05:54:46;97739.59;;;16.35;68.65
41044;BME280;51680;49.806;18.774;2022-10-16T05:57:47;97737.84;;;16.67;67.84
41044;BME280;51680;49.806;18.774;2022-10-16T06:00:53;97736.13;;;17.18;65.41
41044;BME280;51680;49.806;18.774;2022-10-16T06:03:57;97728.53;;;18.44;62.05
41044;BME280;51680;49.806;18.774;2022-10-16T06:06:58;97740.19;;;19.08;59.25
41044;BME280;51680;49.806;18.774;2022-10-16T06:10:02;97732.44;;;19.89;57.22
41044;BME280;51680;49.806;18.774;2022-10-16T06:13:04;97723.16;;;20.82;55.31
41044;BME280;51680;49.806;18.774;2022-10-16T06:16:06;97737.69;;;21.56;53.46
41044;BME280;51680;49.806;18.774;2022-10-16T06:19:10;97734.25;;;22.38;50.81
41044;BME280;51680;49.806;18.774;2022-10-16T06:22:11;97743.50;;;22.92;50.04
41044;BME280;51680;49.806;18.774;2022-10-16T06:25:13;97754.81;;;23.02;49.18
41044;BME280;51680;49.806;18.774;2022-10-16T06:28:15;97744.19;;;23.26;48.53
41044;BME280;51680;49.806;18.774;2022-10-16T06:31:17;97745.09;;;23.89;47.37
41044;BME280;51680;49.806;18.774;2022-10-16T06:34:20;97758.56;;;23.95;46.62
41044;BME280;51680;49.806;18.774;2022-10-16T06:37:22;97766.31;;;24.21;45.71
41044;BME280;51680;49.806;18.774;2022-10-16T06:40:25;97769.44;;;24.71;45.49
41044;BME280;51680;49.806;18.774;2022-10-16T06:43:28;97773.47;;;25.34;43.84
41044;BME280;51680;49.806;18.774;2022-10-16T06:46:32;97780.69;;;26.14;42.60
41044;BME280;51680;49.806;18.774;2022-10-16T06:49:35;97782.25;;;26.88;40.43
41044;BME280;51680;49.806;18.774;2022-10-16T06:52:37;97789.06;;;25.68;42.85
41044;BME280;51680;49.806;18.774;2022-10-16T06:55:39;97802.13;;;24.73;42.44
41044;BME280;51680;49.806;18.774;2022-10-16T06:58:41;97801.66;;;23.28;46.84
41044;BME280;51680;49.806;18.774;2022-10-16T07:01:43;97807.50;;;22.50;49.34
41044;BME280;51680;49.806;18.774;2022-10-16T07:04:46;97815.88;;;21.71;50.47
41044;BME280;51680;49.806;18.774;2022-10-16T07:07:48;97821.06;;;21.37;51.82
41044;BME280;51680;49.806;18.774;2022-10-16T07:10:58;97816.19;;;20.90;51.79
41044;BME280;51680;49.806;18.774;2022-10-16T07:14:00;97816.47;;;20.42;54.08
41044;BME280;51680;49.806;18.774;2022-10-16T07:17:02;97809.16;;;20.54;54.41
41044;BME280;51680;49.806;18.774;2022-10-16T07:20:07;97815.06;;;20.21;54.89
41044;BME280;51680;49.806;18.774;2022-10-16T07:23:08;97832.63;;;19.76;55.28
41044;BME280;51680;49.806;18.774;2022-10-16T07:26:10;97832.13;;;19.63;56.20
41044;BME280;51680;49.806;18.774;2022-10-16T07:29:13;97844.25;;;19.56;56.38
41044;BME280;51680;49.806;18.774;2022-10-16T07:32:15;97845.88;;;19.76;56.16
41044;BME280;51680;49.806;18.774;2022-10-16T07:35:18;97841.19;;;20.06;55.46
41044;BME280;51680;49.806;18.774;2022-10-16T07:38:21;97836.22;;;21.80;51.72
41044;BME280;51680;49.806;18.774;2022-10-16T07:41:23;97818.41;;;24.01;47.22
41044;BME280;51680;49.806;18.774;2022-10-16T07:44:25;97814.91;;;24.85;42.99
41044;BME280;51680;49.806;18.774;2022-10-16T07:47:26;97816.09;;;25.05;44.70
41044;BME280;51680;49.806;18.774;2022-10-16T07:50:30;97831.97;;;24.38;45.23
41044;BME280;51680;49.806;18.774;2022-10-16T07:53:31;97841.41;;;24.02;45.92
41044;BME280;51680;49.806;18.774;2022-10-16T07:56:33;97850.72;;;23.02;48.06
41044;BME280;51680;49.806;18.774;2022-10-16T07:59:35;97860.72;;;22.50;49.15
41044;BME280;51680;49.806;18.774;2022-10-16T08:02:37;97855.41;;;22.17;50.10
41044;BME280;51680;49.806;18.774;2022-10-16T08:05:40;97847.31;;;21.75;50.09
41044;BME280;51680;49.806;18.774;2022-10-16T08:08:42;97851.13;;;21.55;51.33
41044;BME280;51680;49.806;18.774;2022-10-16T08:12:03;97859.16;;;21.81;51.39
41044;BME280;51680;49.806;18.774;2022-10-16T08:15:06;97848.13;;;22.27;49.90
41044;BME280;51680;49.806;18.774;2022-10-16T08:18:09;97859.69;;;22.43;49.33
41044;BME280;51680;49.806;18.774;2022-10-16T08:21:14;97854.19;;;21.86;49.97
41044;BME280;51680;49.806;18.774;2022-10-16T08:24:16;97853.28;;;21.34;51.17
41044;BME280;51680;49.806;18.774;2022-10-16T08:27:18;97864.63;;;20.92;52.69
41044;BME280;51680;49.806;18.774;2022-10-16T08:30:21;97868.84;;;20.67;53.22
41044;BME280;51680;49.806;18.774;2022-10-16T08:33:24;97868.69;;;20.42;54.59
41044;BME280;51680;49.806;18.774;2022-10-16T08:36:27;97873.50;;;20.29;54.36
41044;BME280;51680;49.806;18.774;2022-10-16T08:39:28;97868.00;;;19.94;55.08
41044;BME280;51680;49.806;18.774;2022-10-16T08:42:40;97874.44;;;19.82;55.69
41044;BME280;51680;49.806;18.774;2022-10-16T08:45:52;97873.09;;;19.68;56.15
41044;BME280;51680;49.806;18.774;2022-10-16T08:49:02;97867.09;;;19.66;56.10
41044;BME280;51680;49.806;18.774;2022-10-16T08:52:10;97865.28;;;19.76;56.24
41044;BME280;51680;49.806;18.774;2022-10-16T08:55:23;97867.25;;;19.65;56.54
41044;BME280;51680;49.806;18.774;2022-10-16T08:58:30;97864.59;;;19.65;55.97
41044;BME280;51680;49.806;18.774;2022-10-16T09:01:37;97869.25;;;19.99;56.09
41044;BME280;51680;49.806;18.774;2022-10-16T09:04:51;97863.47;;;20.23;54.92
41044;BME280;51680;49.806;18.774;2022-10-16T09:08:05;97868.09;;;20.48;54.39
41044;BME280;51680;49.806;18.774;2022-10-16T09:11:14;97865.19;;;20.68;54.07
41044;BME280;51680;49.806;18.774;2022-10-16T09:14:50;97870.75;;;20.75;53.90
41044;BME280;51680;49.806;18.774;2022-10-16T09:18:01;97870.66;;;20.84;53.78
41044;BME280;51680;49.806;18.774;2022-10-16T09:21:09;97870.13;;;20.81;53.33
41044;BME280;51680;49.806;18.774;2022-10-16T09:24:18;97872.50;;;20.84;53.58
41044;BME280;51680;49.806;18.774;2022-10-16T09:27:20;97881.13;;;20.68;53.96
41044;BME280;51680;49.806;18.774;2022-10-16T09:30:22;97887.75;;;20.55;54.41
41044;BME280;51680;49.806;18.774;2022-10-16T09:33:29;97881.59;;;20.81;53.97
41044;BME280;51680;49.806;18.774;2022-10-16T09:36:39;97889.25;;;21.11;53.11
41044;BME280;51680;49.806;18.774;2022-10-16T09:39:47;97889.75;;;21.85;51.54
41044;BME280;51680;49.806;18.774;2022-10-16T09:42:53;97890.50;;;22.46;50.42
41044;BME280;51680;49.806;18.774;2022-10-16T09:46:00;97884.34;;;22.95;49.67
41044;BME280;51680;49.806;18.774;2022-10-16T09:49:03;97895.59;;;23.22;49.12
41044;BME280;51680;49.806;18.774;2022-10-16T09:52:09;97893.75;;;23.23;47.10
41044;BME280;51680;49.806;18.774;2022-10-16T09:55:16;97899.59;;;23.66;47.35
41044;BME280;51680;49.806;18.774;2022-10-16T09:58:21;97906.03;;;23.16;48.16
41044;BME280;51680;49.806;18.774;2022-10-16T10:01:28;97909.44;;;22.84;48.70
41044;BME280;51680;49.806;18.774;2022-10-16T10:04:38;97902.25;;;22.43;49.80
41044;BME280;51680;49.806;18.774;2022-10-16T10:07:43;97913.19;;;22.07;50.72
41044;BME280;51680;49.806;18.774;2022-10-16T10:10:48;97910.19;;;21.67;51.44
41044;BME280;51680;49.806;18.774;2022-10-16T10:13:50;97915.28;;;21.25;52.28
41044;BME280;51680;49.806;18.774;2022-10-16T10:17:01;97924.34;;;20.78;53.51
41044;BME280;51680;49.806;18.774;2022-10-16T10:20:21;97926.56;;;20.56;54.42
41044;BME280;51680;49.806;18.774;2022-10-16T10:23:26;97914.97;;;20.57;54.88
41044;BME280;51680;49.806;18.774;2022-10-16T10:26:31;97923.03;;;20.65;54.57
41044;BME280;51680;49.806;18.774;2022-10-16T10:29:46;97927.75;;;20.71;55.07
41044;BME280;51680;49.806;18.774;2022-10-16T10:33:07;97921.59;;;20.70;55.29
41044;BME280;51680;49.806;18.774;2022-10-16T10:36:27;97923.63;;;20.59;55.30
41044;BME280;51680;49.806;18.774;2022-10-16T10:39:35;97921.66;;;20.61;55.55
41044;BME280;51680;49.806;18.774;2022-10-16T10:42:46;97928.63;;;20.62;55.15
41044;BME280;51680;49.806;18.774;2022-10-16T10:45:54;97919.75;;;20.80;54.98
41044;BME280;51680;49.806;18.774;2022-10-16T10:49:14;97930.59;;;20.87;55.04
41044;BME280;51680;49.806;18.774;2022-10-16T10:52:32;97925.41;;;20.95;54.73
41044;BME280;51680;49.806;18.774;2022-10-16T10:55:40;97931.56;;;20.86;54.67
41044;BME280;51680;49.806;18.774;2022-10-16T10:58:53;97926.19;;;21.05;55.46
41044;BME280;51680;49.806;18.774;2022-10-16T11:02:00;97926.28;;;21.13;54.54
41044;BME280;51680;49.806;18.774;2022-10-16T11:08:34;97924.72;;;21.55;53.54
41044;BME280;51680;49.806;18.774;2022-10-16T11:11:41;97928.91;;;21.75;53.17
41044;BME280;51680;49.806;18.774;2022-10-16T11:14:52;97922.50;;;21.85;53.38
41044;BME280;51680;49.806;18.774;2022-10-16T11:18:01;97921.69;;;22.10;52.32
41044;BME280;51680;49.806;18.774;2022-10-16T11:21:08;97931.03;;;22.14;52.62
41044;BME280;51680;49.806;18.774;2022-10-16T11:24:17;97929.50;;;22.12;52.75
41044;BME280;51680;49.806;18.774;2022-10-16T11:27:24;97943.31;;;21.90;53.11
41044;BME280;51680;49.806;18.774;2022-10-16T11:30:33;97929.56;;;21.77;52.55
41044;BME280;51680;49.806;18.774;2022-10-16T11:33:39;97934.50;;;21.72;52.92
41044;BME280;51680;49.806;18.774;2022-10-16T11:36:45;97936.63;;;21.51;53.20
41044;BME280;51680;49.806;18.774;2022-10-16T11:39:50;97933.22;;;21.58;53.70
41044;BME280;51680;49.806;18.774;2022-10-16T11:42:55;97930.44;;;21.68;53.69
41044;BME280;51680;49.806;18.774;2022-10-16T11:46:05;97930.41;;;21.60;53.79
41044;BME280;51680;49.806;18.774;2022-10-16T11:49:14;97931.38;;;21.59;53.96
41044;BME280;51680;49.806;18.774;2022-10-16T11:52:22;97935.75;;;21.68;54.73
41044;BME280;51680;49.806;18.774;2022-10-16T11:55:28;97926.03;;;21.59;54.34
41044;BME280;51680;49.806;18.774;2022-10-16T11:58:36;97915.81;;;21.46;54.45
41044;BME280;51680;49.806;18.774;2022-10-16T12:01:43;97920.69;;;21.51;54.71
41044;BME280;51680;49.806;18.774;2022-10-16T12:04:51;97922.88;;;21.38;54.56
41044;BME280;51680;49.806;18.774;2022-10-16T12:08:06;97929.22;;;21.10;55.09
41044;BME280;51680;49.806;18.774;2022-10-16T12:11:23;97922.41;;;21.25;55.22
41044;BME280;51680;49.806;18.774;2022-10-16T12:14:36;97921.22;;;21.37;54.61
41044;BME280;51680;49.806;18.774;2022-10-16T12:17:40;97928.19;;;21.38;54.71
41044;BME280;51680;49.806;18.774;2022-10-16T12:20:41;97930.75;;;21.30;54.61
41044;BME280;51680;49.806;18.774;2022-10-16T12:23:48;97937.28;;;21.18;54.98
41044;BME280;51680;49.806;18.774;2022-10-16T12:26:52;97939.81;;;21.19;54.97
41044;BME280;51680;49.806;18.774;2022-10-16T12:29:56;97933.34;;;21.22;55.13
41044;BME280;51680;49.806;18.774;2022-10-16T12:33:01;97943.91;;;21.31;55.22
41044;BME280;51680;49.806;18.774;2022-10-16T12:36:09;97944.38;;;21.44;54.79
41044;BME280;51680;49.806;18.774;2022-10-16T12:39:20;97948.25;;;21.50;54.71
41044;BME280;51680;49.806;18.774;2022-10-16T12:42:32;97949.28;;;21.57;54.09
41044;BME280;51680;49.806;18.774;2022-10-16T12:45:34;97953.19;;;21.62;54.63
41044;BME280;51680;49.806;18.774;2022-10-16T12:48:39;97943.75;;;21.33;54.75
41044;BME280;51680;49.806;18.774;2022-10-16T12:51:42;97959.38;;;21.18;55.39
41044;BME280;51680;49.806;18.774;2022-10-16T12:54:44;97949.81;;;21.25;55.75
41044;BME280;51680;49.806;18.774;2022-10-16T12:58:00;97946.63;;;21.22;55.41
41044;BME280;51680;49.806;18.774;2022-10-16T13:01:33;97948.59;;;21.20;55.78
41044;BME280;51680;49.806;18.774;2022-10-16T13:05:02;97947.63;;;21.21;55.90
41044;BME280;51680;49.806;18.774;2022-10-16T13:08:24;97946.69;;;21.30;55.64
41044;BME280;51680;49.806;18.774;2022-10-16T13:11:41;97948.16;;;21.42;56.03
41044;BME280;51680;49.806;18.774;2022-10-16T13:15:12;97957.66;;;21.62;56.10
41044;BME280;51680;49.806;18.774;2022-10-16T13:18:23;97958.88;;;21.67;55.54
41044;BME280;51680;49.806;18.774;2022-10-16T13:21:39;97954.00;;;21.63;55.20
41044;BME280;51680;49.806;18.774;2022-10-16T13:24:53;97961.91;;;21.55;55.45
41044;BME280;51680;49.806;18.774;2022-10-16T13:28:00;97964.81;;;21.61;55.66
41044;BME280;51680;49.806;18.774;2022-10-16T13:31:02;97972.06;;;21.42;55.69
41044;BME280;51680;49.806;18.774;2022-10-16T13:34:05;97969.19;;;21.53;55.68
41044;BME280;51680;49.806;18.774;2022-10-16T13:37:18;97971.78;;;21.62;55.25
41044;BME280;51680;49.806;18.774;2022-10-16T13:40:22;97967.00;;;21.66;55.84
41044;BME280;51680;49.806;18.774;2022-10-16T13:43:27;97962.31;;;21.77;55.49
41044;BME280;51680;49.806;18.774;2022-10-16T13:46:30;97964.88;;;21.69;55.70
41044;BME280;51680;49.806;18.774;2022-10-16T13:49:34;97959.63;;;21.60;55.79
41044;BME280;51680;49.806;18.774;2022-10-16T13:52:38;97966.16;;;21.48;55.91
41044;BME280;51680;49.806;18.774;2022-10-16T13:55:40;97969.72;;;21.39;55.95
41044;BME280;51680;49.806;18.774;2022-10-16T13:58:42;97959.59;;;21.25;56.02
41044;BME280;51680;49.806;18.774;2022-10-16T14:01:45;97971.31;;;21.05;56.56
41044;BME280;51680;49.806;18.774;2022-10-16T14:04:47;97963.38;;;21.05;56.67
41044;BME280;51680;49.806;18.774;2022-10-16T14:07:51;97960.84;;;21.03;56.74
41044;BME280;51680;49.806;18.774;2022-10-16T14:10:56;97964.84;;;20.90;57.10
41044;BME280;51680;49.806;18.774;2022-10-16T14:13:58;97972.66;;;20.82;57.34
41044;BME280;51680;49.806;18.774;2022-10-16T14:17:00;97975.56;;;20.88;57.38
41044;BME280;51680;49.806;18.774;2022-10-16T14:20:05;97987.75;;;20.91;57.59
41044;BME280;51680;49.806;18.774;2022-10-16T14:23:20;97997.03;;;20.68;57.75
41044;BME280;51680;49.806;18.774;2022-10-16T14:26:26;97995.69;;;20.64;58.27
41044;BME280;51680;49.806;18.774;2022-10-16T14:29:29;98001.22;;;20.70;58.30
41044;BME280;51680;49.806;18.774;2022-10-16T14:32:31;98005.97;;;20.67;58.22
41044;BME280;51680;49.806;18.774;2022-10-16T14:35:35;97998.56;;;20.70;58.30
41044;BME280;51680;49.806;18.774;2022-10-16T14:38:40;98002.25;;;20.60;58.79
41044;BME280;51680;49.806;18.774;2022-10-16T14:41:46;98005.91;;;20.59;58.90
41044;BME280;51680;49.806;18.774;2022-10-16T14:44:48;98007.03;;;20.47;58.96
41044;BME280;51680;49.806;18.774;2022-10-16T14:47:55;98014.72;;;20.50;58.92
41044;BME280;51680;49.806;18.774;2022-10-16T14:50:57;98022.94;;;20.47;58.89
41044;BME280;51680;49.806;18.774;2022-10-16T14:54:00;98010.66;;;20.46;58.98
41044;BME280;51680;49.806;18.774;2022-10-16T14:57:03;98006.63;;;20.42;59.16
41044;BME280;51680;49.806;18.774;2022-10-16T15:00:12;98003.28;;;20.40;59.36
41044;BME280;51680;49.806;18.774;2022-10-16T15:03:15;98009.16;;;20.34;59.50
41044;BME280;51680;49.806;18.774;2022-10-16T15:06:17;98021.88;;;20.30;59.60
41044;BME280;51680;49.806;18.774;2022-10-16T15:09:20;98020.19;;;20.20;59.97
41044;BME280;51680;49.806;18.774;2022-10-16T15:12:22;98018.66;;;20.17;60.06
41044;BME280;51680;49.806;18.774;2022-10-16T15:15:30;98014.06;;;20.10;60.36
41044;BME280;51680;49.806;18.774;2022-10-16T15:18:33;98016.56;;;19.92;60.69
41044;BME280;51680;49.806;18.774;2022-10-16T15:21:35;98001.81;;;19.80;61.07
41044;BME280;51680;49.806;18.774;2022-10-16T15:24:57;98007.22;;;19.69;61.40
41044;BME280;51680;49.806;18.774;2022-10-16T15:27:59;98008.22;;;19.68;61.50
41044;BME280;51680;49.806;18.774;2022-10-16T15:31:04;98011.13;;;19.56;62.29
41044;BME280;51680;49.806;18.774;2022-10-16T15:34:06;98017.53;;;19.53;61.98
41044;BME280;51680;49.806;18.774;2022-10-16T15:37:08;98025.06;;;19.39;62.67
41044;BME280;51680;49.806;18.774;2022-10-16T15:40:14;98022.69;;;19.36;62.86
41044;BME280;51680;49.806;18.774;2022-10-16T15:43:16;98022.25;;;19.31;62.92
41044;BME280;51680;49.806;18.774;2022-10-16T15:46:20;98026.16;;;19.36;62.72
41044;BME280;51680;49.806;18.774;2022-10-16T15:49:22;98027.81;;;19.28;63.02
41044;BME280;51680;49.806;18.774;2022-10-16T15:52:23;98022.94;;;19.33;62.83
41044;BME280;51680;49.806;18.774;2022-10-16T15:55:27;98023.75;;;19.24;63.36
41044;BME280;51680;49.806;18.774;2022-10-16T15:58:28;98027.81;;;19.28;62.88
41044;BME280;51680;49.806;18.774;2022-10-16T16:01:32;98035.06;;;19.26;63.03
41044;BME280;51680;49.806;18.774;2022-10-16T16:04:34;98042.81;;;19.18;63.19
41044;BME280;51680;49.806;18.774;2022-10-16T16:07:37;98036.38;;;19.11;63.44
41044;BME280;51680;49.806;18.774;2022-10-16T16:10:40;98038.22;;;19.20;63.24
41044;BME280;51680;49.806;18.774;2022-10-16T16:13:42;98029.13;;;19.03;63.84